O'Neill, NE

6:54 PM CDT on May 29, 2015 (GMT -0500)
The O'Neill Municipal-Baker | | Change Station
CLOSE
Current Station
Airport
Location: O'Neill,
Elevation: 2031 ft
Nearby Weather Stations

Elev 2031 ft 42.47 °N, 98.69 °W | Updated 19 minutes ago

Light Rain
Light Rain
51 °F
Feels Like 51 °F
N
20
Wind Variable Wind from NNW
Gusts 29 mph

Today
High -- | Low -- °F
--% Chance of Precip.
Yesterday
High -- | Low -- °F
Precip. -- in
6:01 AM 9:02 PM
Waxing Gibbous, 86% visible
Pressure 30.15 in
Visibility 10.0 miles
Clouds Overcast 900 ft
Dew Point 50 °F
Humidity 96%
Rainfall 0.64 in
Snow Depth Not available.
UV 1 out of 12
Pollen 1.20 out of 12
Air Quality Not available.
Flu Activity No Activity
METAR KONL 292335Z AUTO 34017G25KT 10SM -RA OVC009 11/10 A3015 RMK AO2 P0003 T01060100

More Conditions Fewer Conditions

Pressure 30.15 in
Visibility 10.0 miles
Clouds Overcast 900 ft
Dew Point 50 °F
Humidity 96%
Rainfall 0.64 in
Snow Depth Not available.
UV 1 out of 12
Pollen 1.20 out of 12
Air Quality Not available.
Flu Activity No Activity
METAR KONL 292335Z AUTO 34017G25KT 10SM -RA OVC009 11/10 A3015 RMK AO2 P0003 T01060100

More Conditions Fewer Conditions

10-Day Weather Forecast

Almanac

Astronomy

May. 29, 2015 Rise Set
Actual Time
Civil Twilight
Nautical Twilight
Astronomical Twilight
Moon
Length of Visible Light
Length of Day
Tomorrow will be .
, % of the Moon is Illuminated

Today's Extremes

State Highs State Lows

Community

WunderPhotos

Upload Photos

1,825,402 photos uploaded!

WunderBlogs® & News

Nearby

Air Quality

  Air Quality AQ Index Pollutant
Not available.

Snow Depth

Station Depth Elevation

Earthquake Activity

City Distance Mag. Time & Date
Minimum magnitude displayed is 2.5.

Coastal Water Temperatures

Place Temperature

Stations

Nearby Weather Stations

Station Location Temp. Windchill Dew Point Humidity Wind Precip. Elev Updated Type